Snav Lazio — IBUH — position and weather

sailwx.info

Track history (hours):
 
Tides and Currents Weather Stations Pressure Air Temp Water Temp Dewpoint Dewpoint Depression Visibility Wind Speed Wind Dir Waves Ship Positions

Snav Lazio

Last reported at 2014-Jul-25 03:33 UTC. Time now 2014-Jul-25 11:22 UTC.
Position N 40°43' E 014°14'.

Length 162 m; draft 6 m.

Type: Passenger vessel. MMSI: 247163100.

Date/timePositionNaut miles runAvg speedWind from/ knotsBaromVisibWave heightAir tempDewpointWater temp
2014-Jul-25 03:33N 40°43' E 014°14'1817.7
2014-Jul-25 02:33N 40°27' E 014°07'12117.3
2014-Jul-24 19:33N 38°28' E 013°31'1817.7
2014-Jul-24 18:33N 38°11' E 013°26'5 4.6
2014-Jul-24 17:33N 38°08' E 013°22'0 0.0
2014-Jul-24 16:33N 38°08' E 013°22'0 0.0
2014-Jul-24 15:33N 38°08' E 013°22'0 0.0
2014-Jul-24 14:33N 38°08' E 013°22'0 0.0
2014-Jul-24 13:33N 38°08' E 013°22'0 0.0
2014-Jul-24 12:33N 38°08' E 013°22'0 0.0
2014-Jul-24 11:33N 38°08' E 013°22'0 0.0
2014-Jul-24 10:33N 38°08' E 013°22'0 0.0
2014-Jul-24 09:33N 38°08' E 013°22'0 0.0
2014-Jul-24 08:33N 38°08' E 013°22'0 0.0
2014-Jul-24 07:33N 38°08' E 013°22'0 0.0
2014-Jul-24 06:33N 38°08' E 013°22'0 0.0
2014-Jul-24 05:33N 38°08' E 013°22'0 0.0
2014-Jul-24 04:33N 38°08' E 013°22'7 7.1
2014-Jul-24 03:33N 38°14' E 013°26'1818.4
2014-Jul-24 02:33N 38°32' E 013°32'1918.4
2014-Jul-24 01:33N 38°50' E 013°38'8917.8
2014-Jul-23 20:33N 40°17' E 014°02'1717.1
2014-Jul-23 19:33N 40°33' E 014°08'1716.9
2014-Jul-23 18:33N 40°49' E 014°17'6 0.4
2014-Jul-23 03:33N 40°43' E 014°14'1818.3
2014-Jul-23 02:33N 40°26' E 014°05'11117.6
2014-Jul-22 20:15N 38°37' E 013°34'1216.5
2014-Jul-22 19:33N 38°26' E 013°31'1616.4
2014-Jul-22 18:33N 38°10' E 013°26'4 4.0
2014-Jul-22 17:33N 38°08' E 013°22'0 0.0
2014-Jul-22 16:33N 38°08' E 013°22'0 0.0
2014-Jul-22 15:33N 38°08' E 013°22'0 0.0
2014-Jul-22 14:33N 38°08' E 013°22'0 0.0
2014-Jul-22 13:33N 38°08' E 013°22'0 0.0
2014-Jul-22 12:33N 38°08' E 013°22'0 0.0
2014-Jul-22 11:33N 38°08' E 013°22'0 0.0
2014-Jul-22 10:33N 38°08' E 013°22'0 0.0
2014-Jul-22 09:33N 38°08' E 013°22'0 0.0
2014-Jul-22 08:33N 38°08' E 013°22'0 0.0
2014-Jul-22 07:34N 38°08' E 013°22'0 0.0
2014-Jul-22 06:33N 38°08' E 013°22'0 0.0
2014-Jul-22 05:33N 38°08' E 013°22'0 0.0
2014-Jul-22 04:33N 38°08' E 013°22'8 8.2
2014-Jul-22 03:34N 38°15' E 013°28'1818.4
2014-Jul-22 02:33N 38°33' E 013°34'7918.0
2014-Jul-21 22:10N 39°50' E 013°55'1217.7
2014-Jul-21 21:30N 40°02' E 013°59'1717.5
2014-Jul-21 20:33N 40°18' E 014°04'417.4
2014-Jul-21 20:18N 40°22' E 014°05'1317.3
2014-Jul-21 19:33N 40°34' E 014°09'17 1.2
2014-Jul-21 05:28N 40°50' E 014°15'0 0.1
2014-Jul-21 04:06N 40°50' E 014°16'611.5
2014-Jul-21 03:33N 40°44' E 014°15'1817.7
2014-Jul-21 02:34N 40°28' E 014°06'1817.8
2014-Jul-21 01:33N 40°10' E 014°02'1817.8
2014-Jul-21 00:34N 39°53' E 013°57'1817.8
2014-Jul-20 23:33N 39°36' E 013°52'1817.7
2014-Jul-20 22:33N 39°18' E 013°47'1817.9
2014-Jul-20 21:33N 39°01' E 013°41'1818.0
2014-Jul-20 20:33N 38°43' E 013°36'1817.9
2014-Jul-20 19:33N 38°26' E 013°31'1817.9
2014-Jul-20 18:34N 38°09' E 013°25'3 2.8
2014-Jul-20 17:31N 38°08' E 013°22'0 0.0
2014-Jul-20 16:31N 38°08' E 013°22'0 0.0
2014-Jul-20 15:31N 38°08' E 013°22'0 0.0
2014-Jul-20 14:31N 38°08' E 013°22'0 0.0
2014-Jul-20 13:31N 38°08' E 013°22'0 0.0
2014-Jul-20 12:31N 38°08' E 013°22'0 0.0
2014-Jul-20 11:28N 38°08' E 013°22'0 0.0
2014-Jul-20 10:31N 38°08' E 013°22'0 0.0
2014-Jul-20 09:31N 38°08' E 013°22'0 0.0
2014-Jul-20 08:31N 38°08' E 013°22'0 0.0
2014-Jul-20 07:31N 38°08' E 013°22'0 0.0
2014-Jul-20 06:31N 38°08' E 013°22'0 0.0
2014-Jul-20 05:31N 38°08' E 013°22'1 0.9
2014-Jul-20 04:33N 38°07' E 013°23'1514.6
2014-Jul-20 03:33N 38°21' E 013°29'1717.5
2014-Jul-20 02:34N 38°38' E 013°34'1717.3
2014-Jul-20 01:34N 38°55' E 013°39'1717.2
2014-Jul-20 00:33N 39°12' E 013°44'1717.3
2014-Jul-19 23:34N 39°29' E 013°48'1717.3
2014-Jul-19 22:33N 39°46' E 013°54'1717.4
2014-Jul-19 21:33N 40°03' E 013°59'1817.6
2014-Jul-19 20:33N 40°20' E 014°04'1817.7
2014-Jul-19 19:34N 40°37' E 014°10'1414.0
2014-Jul-19 18:33N 40°50' E 014°15'0 0.0
2014-Jul-19 17:33N 40°50' E 014°15'0 0.0
2014-Jul-19 16:27N 40°50' E 014°15'0 0.0
2014-Jul-19 15:33N 40°50' E 014°15'0 0.0
2014-Jul-19 14:33N 40°50' E 014°15'0 0.0
2014-Jul-19 13:06N 40°50' E 014°15'0 0.0
2014-Jul-19 12:33N 40°50' E 014°15'0 0.0
2014-Jul-19 11:30N 40°50' E 014°15'0 0.0
2014-Jul-19 10:33N 40°50' E 014°15'0 0.0
2014-Jul-19 09:24N 40°50' E 014°15'0 0.1
2014-Jul-19 04:27N 40°50' E 014°16'1213.3
2014-Jul-19 03:34N 40°39' E 014°11'1717.3
2014-Jul-19 02:33N 40°23' E 014°03'1717.3
2014-Jul-19 01:33N 40°06' E 014°01'1717.2
2014-Jul-19 00:34N 39°49' E 013°55'1717.1
2014-Jul-18 23:33N 39°32' E 013°50'1716.9
2014-Jul-18 22:33N 39°16' E 013°46'4317.1
2014-Jul-18 20:04N 38°34' E 013°33'917.2
2014-Jul-18 19:33N 38°26' E 013°31'1717.3
2014-Jul-18 18:33N 38°09' E 013°26'3 2.9
2014-Jul-18 17:31N 38°08' E 013°22'0 0.0
2014-Jul-18 16:28N 38°08' E 013°22'0 0.0
2014-Jul-18 15:31N 38°08' E 013°22'0 0.0
2014-Jul-18 14:31N 38°08' E 013°22'0 0.0
2014-Jul-18 13:28N 38°08' E 013°22'0 0.0
2014-Jul-18 12:31N 38°08' E 013°22'0 0.0
2014-Jul-18 11:31N 38°08' E 013°22'0 0.0
2014-Jul-18 10:31N 38°08' E 013°22'0 0.0
2014-Jul-18 09:31N 38°08' E 013°22'0 0.0
2014-Jul-18 08:31N 38°08' E 013°22'0 0.0
2014-Jul-18 07:31N 38°08' E 013°22'0 0.0
2014-Jul-18 06:31N 38°08' E 013°22'0 0.0
2014-Jul-18 05:31N 38°08' E 013°22'1 1.5
2014-Jul-18 04:34N 38°08' E 013°24'1817.9
2014-Jul-18 03:34N 38°25' E 013°30'1918.7
2014-Jul-18 02:33N 38°43' E 013°35'3718.7
2014-Jul-18 00:34N 39°20' E 013°45'1919.0
2014-Jul-17 23:34N 39°38' E 013°51'1919.0
2014-Jul-17 22:34N 39°57' E 013°57'1919.0
2014-Jul-17 21:34N 40°15' E 014°03'1212.2
2014-Jul-17 20:33N 40°27' E 014°06'1010.3
2014-Jul-17 19:33N 40°37' E 014°10'1413.1
2014-Jul-17 18:30N 40°50' E 014°16'0 0.1
2014-Jul-17 17:33N 40°50' E 014°15'0 0.0
2014-Jul-17 16:31N 40°50' E 014°15'0 0.0
2014-Jul-17 15:28N 40°50' E 014°15'0 0.0
2014-Jul-17 14:31N 40°50' E 014°15'0 0.0
2014-Jul-17 13:34N 40°50' E 014°15'0 0.0
2014-Jul-17 12:34N 40°50' E 014°15'0 0.0
2014-Jul-17 11:33N 40°50' E 014°15'0 0.0
2014-Jul-17 10:33N 40°50' E 014°15'0 0.0
2014-Jul-17 09:33N 40°50' E 014°15'0 0.0
2014-Jul-17 08:33N 40°50' E 014°15'0 0.1
2014-Jul-17 04:03N 40°50' E 014°16'612.1
2014-Jul-17 03:33N 40°44' E 014°15'1717.4
2014-Jul-17 02:34N 40°28' E 014°07'1817.8
2014-Jul-17 01:33N 40°11' E 014°02'4317.6
2014-Jul-16 23:07N 39°29' E 013°50'1017.5
2014-Jul-16 22:33N 39°19' E 013°46'1917.5
2014-Jul-16 21:30N 39°01' E 013°41'1717.5
2014-Jul-16 20:32N 38°45' E 013°36'1717.5
2014-Jul-16 19:33N 38°28' E 013°32'1717.4
2014-Jul-16 18:33N 38°11' E 013°27'5 4.3
2014-Jul-16 17:28N 38°08' E 013°22'0 0.0
2014-Jul-16 16:31N 38°08' E 013°22'0 0.0
2014-Jul-16 15:31N 38°08' E 013°22'0 0.0
2014-Jul-16 14:31N 38°08' E 013°22'0 0.0
2014-Jul-16 13:31N 38°08' E 013°22'0 0.0
2014-Jul-16 12:28N 38°08' E 013°22'0 0.0
2014-Jul-16 11:28N 38°08' E 013°22'0 0.0
2014-Jul-16 10:31N 38°08' E 013°22'0 0.0
2014-Jul-16 09:31N 38°08' E 013°22'0 0.0
2014-Jul-16 08:31N 38°08' E 013°22'0 0.0
2014-Jul-16 07:31N 38°08' E 013°22'0 0.0
2014-Jul-16 06:28N 38°08' E 013°22'0 0.0
2014-Jul-16 05:31N 38°08' E 013°22'0 0.0
2014-Jul-16 04:31N 38°08' E 013°22'4 4.6
2014-Jul-16 03:34N 38°11' E 013°26'1818.2
2014-Jul-16 02:34N 38°29' E 013°31'1818.3
2014-Jul-16 01:33N 38°47' E 013°36'4018.2
2014-Jul-15 23:19N 39°27' E 013°47'1416.6
2014-Jul-15 22:30N 39°40' E 013°52'1617.2
2014-Jul-15 21:33N 39°55' E 013°57'1918.9
2014-Jul-15 20:33N 40°14' E 014°03'1918.9
2014-Jul-15 19:33N 40°32' E 014°09'1918.5
2014-Jul-15 18:33N 40°50' E 014°17'  
Track history (hours):
 
Tides and Currents Weather Stations Pressure Air Temp Water Temp Dewpoint Dewpoint Depression Visibility Wind Speed Wind Dir Waves Ship Positions

Snav Lazio

Last reported at 2014-Jul-25 03:33 UTC. Time now 2014-Jul-25 11:22 UTC.
Position N 40°43' E 014°14'.

Length 162 m; draft 6 m.

Type: Passenger vessel. MMSI: 247163100.

Date/timePositionNaut miles runAvg speedWind from/ knotsBaromVisibWave heightAir tempDewpointWater temp
2014-Jul-25 03:33N 40°43' E 014°14'1817.7
2014-Jul-25 02:33N 40°27' E 014°07'12117.3
2014-Jul-24 19:33N 38°28' E 013°31'1817.7
2014-Jul-24 18:33N 38°11' E 013°26'5 4.6
2014-Jul-24 17:33N 38°08' E 013°22'0 0.0
2014-Jul-24 16:33N 38°08' E 013°22'0 0.0
2014-Jul-24 15:33N 38°08' E 013°22'0 0.0
2014-Jul-24 14:33N 38°08' E 013°22'0 0.0
2014-Jul-24 13:33N 38°08' E 013°22'0 0.0
2014-Jul-24 12:33N 38°08' E 013°22'0 0.0
2014-Jul-24 11:33N 38°08' E 013°22'0 0.0
2014-Jul-24 10:33N 38°08' E 013°22'0 0.0
2014-Jul-24 09:33N 38°08' E 013°22'0 0.0
2014-Jul-24 08:33N 38°08' E 013°22'0 0.0
2014-Jul-24 07:33N 38°08' E 013°22'0 0.0
2014-Jul-24 06:33N 38°08' E 013°22'0 0.0
2014-Jul-24 05:33N 38°08' E 013°22'0 0.0
2014-Jul-24 04:33N 38°08' E 013°22'7 7.1
2014-Jul-24 03:33N 38°14' E 013°26'1818.4
2014-Jul-24 02:33N 38°32' E 013°32'1918.4
2014-Jul-24 01:33N 38°50' E 013°38'8917.8
2014-Jul-23 20:33N 40°17' E 014°02'1717.1
2014-Jul-23 19:33N 40°33' E 014°08'1716.9
2014-Jul-23 18:33N 40°49' E 014°17'6 0.4
2014-Jul-23 03:33N 40°43' E 014°14'1818.3
2014-Jul-23 02:33N 40°26' E 014°05'11117.6
2014-Jul-22 20:15N 38°37' E 013°34'1216.5
2014-Jul-22 19:33N 38°26' E 013°31'1616.4
2014-Jul-22 18:33N 38°10' E 013°26'4 4.0
2014-Jul-22 17:33N 38°08' E 013°22'0 0.0
2014-Jul-22 16:33N 38°08' E 013°22'0 0.0
2014-Jul-22 15:33N 38°08' E 013°22'0 0.0
2014-Jul-22 14:33N 38°08' E 013°22'0 0.0
2014-Jul-22 13:33N 38°08' E 013°22'0 0.0
2014-Jul-22 12:33N 38°08' E 013°22'0 0.0
2014-Jul-22 11:33N 38°08' E 013°22'0 0.0
2014-Jul-22 10:33N 38°08' E 013°22'0 0.0
2014-Jul-22 09:33N 38°08' E 013°22'0 0.0
2014-Jul-22 08:33N 38°08' E 013°22'0 0.0
2014-Jul-22 07:34N 38°08' E 013°22'0 0.0
2014-Jul-22 06:33N 38°08' E 013°22'0 0.0
2014-Jul-22 05:33N 38°08' E 013°22'0 0.0
2014-Jul-22 04:33N 38°08' E 013°22'8 8.2
2014-Jul-22 03:34N 38°15' E 013°28'1818.4
2014-Jul-22 02:33N 38°33' E 013°34'7918.0
2014-Jul-21 22:10N 39°50' E 013°55'1217.7
2014-Jul-21 21:30N 40°02' E 013°59'1717.5
2014-Jul-21 20:33N 40°18' E 014°04'417.4
2014-Jul-21 20:18N 40°22' E 014°05'1317.3
2014-Jul-21 19:33N 40°34' E 014°09'17 1.2
2014-Jul-21 05:28N 40°50' E 014°15'0 0.1
2014-Jul-21 04:06N 40°50' E 014°16'611.5
2014-Jul-21 03:33N 40°44' E 014°15'1817.7
2014-Jul-21 02:34N 40°28' E 014°06'1817.8
2014-Jul-21 01:33N 40°10' E 014°02'1817.8
2014-Jul-21 00:34N 39°53' E 013°57'1817.8
2014-Jul-20 23:33N 39°36' E 013°52'1817.7
2014-Jul-20 22:33N 39°18' E 013°47'1817.9
2014-Jul-20 21:33N 39°01' E 013°41'1818.0
2014-Jul-20 20:33N 38°43' E 013°36'1817.9
2014-Jul-20 19:33N 38°26' E 013°31'1817.9
2014-Jul-20 18:34N 38°09' E 013°25'3 2.8
2014-Jul-20 17:31N 38°08' E 013°22'0 0.0
2014-Jul-20 16:31N 38°08' E 013°22'0 0.0
2014-Jul-20 15:31N 38°08' E 013°22'0 0.0
2014-Jul-20 14:31N 38°08' E 013°22'0 0.0
2014-Jul-20 13:31N 38°08' E 013°22'0 0.0
2014-Jul-20 12:31N 38°08' E 013°22'0 0.0
2014-Jul-20 11:28N 38°08' E 013°22'0 0.0
2014-Jul-20 10:31N 38°08' E 013°22'0 0.0
2014-Jul-20 09:31N 38°08' E 013°22'0 0.0
2014-Jul-20 08:31N 38°08' E 013°22'0 0.0
2014-Jul-20 07:31N 38°08' E 013°22'0 0.0
2014-Jul-20 06:31N 38°08' E 013°22'0 0.0
2014-Jul-20 05:31N 38°08' E 013°22'1 0.9
2014-Jul-20 04:33N 38°07' E 013°23'1514.6
2014-Jul-20 03:33N 38°21' E 013°29'1717.5
2014-Jul-20 02:34N 38°38' E 013°34'1717.3
2014-Jul-20 01:34N 38°55' E 013°39'1717.2
2014-Jul-20 00:33N 39°12' E 013°44'1717.3
2014-Jul-19 23:34N 39°29' E 013°48'1717.3
2014-Jul-19 22:33N 39°46' E 013°54'1717.4
2014-Jul-19 21:33N 40°03' E 013°59'1817.6
2014-Jul-19 20:33N 40°20' E 014°04'1817.7
2014-Jul-19 19:34N 40°37' E 014°10'1414.0
2014-Jul-19 18:33N 40°50' E 014°15'0 0.0
2014-Jul-19 17:33N 40°50' E 014°15'0 0.0
2014-Jul-19 16:27N 40°50' E 014°15'0 0.0
2014-Jul-19 15:33N 40°50' E 014°15'0 0.0
2014-Jul-19 14:33N 40°50' E 014°15'0 0.0
2014-Jul-19 13:06N 40°50' E 014°15'0 0.0
2014-Jul-19 12:33N 40°50' E 014°15'0 0.0
2014-Jul-19 11:30N 40°50' E 014°15'0 0.0
2014-Jul-19 10:33N 40°50' E 014°15'0 0.0
2014-Jul-19 09:24N 40°50' E 014°15'0 0.1
2014-Jul-19 04:27N 40°50' E 014°16'1213.3
2014-Jul-19 03:34N 40°39' E 014°11'1717.3
2014-Jul-19 02:33N 40°23' E 014°03'1717.3
2014-Jul-19 01:33N 40°06' E 014°01'1717.2
2014-Jul-19 00:34N 39°49' E 013°55'1717.1
2014-Jul-18 23:33N 39°32' E 013°50'1716.9
2014-Jul-18 22:33N 39°16' E 013°46'4317.1
2014-Jul-18 20:04N 38°34' E 013°33'917.2
2014-Jul-18 19:33N 38°26' E 013°31'1717.3
2014-Jul-18 18:33N 38°09' E 013°26'3 2.9
2014-Jul-18 17:31N 38°08' E 013°22'0 0.0
2014-Jul-18 16:28N 38°08' E 013°22'0 0.0
2014-Jul-18 15:31N 38°08' E 013°22'0 0.0
2014-Jul-18 14:31N 38°08' E 013°22'0 0.0
2014-Jul-18 13:28N 38°08' E 013°22'0 0.0
2014-Jul-18 12:31N 38°08' E 013°22'0 0.0
2014-Jul-18 11:31N 38°08' E 013°22'0 0.0
2014-Jul-18 10:31N 38°08' E 013°22'0 0.0
2014-Jul-18 09:31N 38°08' E 013°22'0 0.0
2014-Jul-18 08:31N 38°08' E 013°22'0 0.0
2014-Jul-18 07:31N 38°08' E 013°22'0 0.0
2014-Jul-18 06:31N 38°08' E 013°22'0 0.0
2014-Jul-18 05:31N 38°08' E 013°22'1 1.5
2014-Jul-18 04:34N 38°08' E 013°24'1817.9
2014-Jul-18 03:34N 38°25' E 013°30'1918.7
2014-Jul-18 02:33N 38°43' E 013°35'3718.7
2014-Jul-18 00:34N 39°20' E 013°45'1919.0
2014-Jul-17 23:34N 39°38' E 013°51'1919.0
2014-Jul-17 22:34N 39°57' E 013°57'1919.0
2014-Jul-17 21:34N 40°15' E 014°03'1212.2
2014-Jul-17 20:33N 40°27' E 014°06'1010.3
2014-Jul-17 19:33N 40°37' E 014°10'1413.1
2014-Jul-17 18:30N 40°50' E 014°16'0 0.1
2014-Jul-17 17:33N 40°50' E 014°15'0 0.0
2014-Jul-17 16:31N 40°50' E 014°15'0 0.0
2014-Jul-17 15:28N 40°50' E 014°15'0 0.0
2014-Jul-17 14:31N 40°50' E 014°15'0 0.0
2014-Jul-17 13:34N 40°50' E 014°15'0 0.0
2014-Jul-17 12:34N 40°50' E 014°15'0 0.0
2014-Jul-17 11:33N 40°50' E 014°15'0 0.0
2014-Jul-17 10:33N 40°50' E 014°15'0 0.0
2014-Jul-17 09:33N 40°50' E 014°15'0 0.0
2014-Jul-17 08:33N 40°50' E 014°15'0 0.1
2014-Jul-17 04:03N 40°50' E 014°16'612.1
2014-Jul-17 03:33N 40°44' E 014°15'1717.4
2014-Jul-17 02:34N 40°28' E 014°07'1817.8
2014-Jul-17 01:33N 40°11' E 014°02'4317.6
2014-Jul-16 23:07N 39°29' E 013°50'1017.5
2014-Jul-16 22:33N 39°19' E 013°46'1917.5
2014-Jul-16 21:30N 39°01' E 013°41'1717.5
2014-Jul-16 20:32N 38°45' E 013°36'1717.5
2014-Jul-16 19:33N 38°28' E 013°32'1717.4
2014-Jul-16 18:33N 38°11' E 013°27'5 4.3
2014-Jul-16 17:28N 38°08' E 013°22'0 0.0
2014-Jul-16 16:31N 38°08' E 013°22'0 0.0
2014-Jul-16 15:31N 38°08' E 013°22'0 0.0
2014-Jul-16 14:31N 38°08' E 013°22'0 0.0
2014-Jul-16 13:31N 38°08' E 013°22'0 0.0
2014-Jul-16 12:28N 38°08' E 013°22'0 0.0
2014-Jul-16 11:28N 38°08' E 013°22'0 0.0
2014-Jul-16 10:31N 38°08' E 013°22'0 0.0
2014-Jul-16 09:31N 38°08' E 013°22'0 0.0
2014-Jul-16 08:31N 38°08' E 013°22'0 0.0
2014-Jul-16 07:31N 38°08' E 013°22'0 0.0
2014-Jul-16 06:28N 38°08' E 013°22'0 0.0
2014-Jul-16 05:31N 38°08' E 013°22'0 0.0
2014-Jul-16 04:31N 38°08' E 013°22'4 4.6
2014-Jul-16 03:34N 38°11' E 013°26'1818.2
2014-Jul-16 02:34N 38°29' E 013°31'1818.3
2014-Jul-16 01:33N 38°47' E 013°36'4018.2
2014-Jul-15 23:19N 39°27' E 013°47'1416.6
2014-Jul-15 22:30N 39°40' E 013°52'1617.2
2014-Jul-15 21:33N 39°55' E 013°57'1918.9
2014-Jul-15 20:33N 40°14' E 014°03'1918.9
2014-Jul-15 19:33N 40°32' E 014°09'1918.5
2014-Jul-15 18:33N 40°50' E 014°17'  

Dump ship's entire track history